createdAt,value
2022-10-15T00:01:19.577Z,13.5
2022-10-15T00:31:19.511Z,13.5
2022-10-15T01:01:19.636Z,13.44
2022-10-15T01:31:19.536Z,13.44
2022-10-15T02:01:19.618Z,13.44
2022-10-15T02:31:19.526Z,13.5
2022-10-15T03:01:19.596Z,13.44
2022-10-15T03:31:19.542Z,13.5
2022-10-15T04:01:19.623Z,13.56
2022-10-15T04:31:19.537Z,13.63
2022-10-15T05:01:19.560Z,13.5
2022-10-15T05:31:19.555Z,13.56
2022-10-15T06:01:19.548Z,13.56
2022-10-15T06:31:19.560Z,13.81
2022-10-15T07:01:19.567Z,14.13
2022-10-15T07:31:19.554Z,14.38
2022-10-15T08:01:19.571Z,15
2022-10-15T08:31:19.579Z,15.75
2022-10-15T09:01:19.592Z,15.63
2022-10-15T09:31:19.602Z,15.81
2022-10-15T10:01:19.598Z,16.06
2022-10-15T10:31:19.681Z,16.06
2022-10-15T11:01:19.665Z,16.69
2022-10-15T11:31:19.682Z,16.88
2022-10-15T12:01:19.626Z,17.75
2022-10-15T12:31:19.628Z,17.06
2022-10-15T13:01:19.700Z,18.13
2022-10-15T13:31:19.634Z,17.81
2022-10-15T14:01:19.640Z,17.5
2022-10-15T14:31:19.649Z,17.56
2022-10-15T15:01:19.638Z,18.19
2022-10-15T15:31:19.641Z,17.88
2022-10-15T16:01:19.735Z,17.25
2022-10-15T16:31:19.642Z,16.94
2022-10-15T17:01:19.660Z,16.44
2022-10-15T17:31:19.655Z,16.31
2022-10-15T18:01:28.024Z,16.31
2022-10-15T18:31:19.662Z,16.19
2022-10-15T19:01:22.283Z,16.13
2022-10-15T19:31:19.684Z,16.06
2022-10-15T20:01:19.734Z,15.94
2022-10-15T20:31:19.697Z,15.75
2022-10-15T21:01:19.772Z,15.63
2022-10-15T21:31:19.716Z,15.5
2022-10-15T22:01:19.878Z,15.31
2022-10-15T22:31:19.718Z,15.06
2022-10-15T23:01:19.811Z,15.19
2022-10-15T23:31:19.717Z,15.25
